createdAt,value
2022-09-13T00:01:07.060Z,30.07
2022-09-13T00:03:35.976Z,70.20
2022-09-13T00:06:11.642Z,50.50
2022-09-13T00:08:39.206Z,27.70
2022-09-13T00:11:06.756Z,31.30
2022-09-13T00:13:34.356Z,32.83
2022-09-13T00:16:03.857Z,29.27
2022-09-13T00:18:31.533Z,32.93
2022-09-13T00:21:07.963Z,41.83
2022-09-13T00:23:35.686Z,35.73
2022-09-13T00:26:08.047Z,35.33
2022-09-13T00:28:35.763Z,67.90
2022-09-13T00:31:04.238Z,81.70
2022-09-13T00:33:32.231Z,38.30
2022-09-13T00:35:59.811Z,36.43
2022-09-13T00:38:28.663Z,30.13
2022-09-13T00:40:56.174Z,40.33
2022-09-13T00:43:42.645Z,40.63
2022-09-13T00:46:10.694Z,52.67
2022-09-13T00:48:38.732Z,52.53
2022-09-13T00:51:07.144Z,33.03
2022-09-13T00:53:38.654Z,27.87
2022-09-13T00:56:09.945Z,26.73
2022-09-13T00:58:40.438Z,62.63
2022-09-13T01:01:10.903Z,63.57
2022-09-13T01:03:38.639Z,28.70
2022-09-13T01:06:08.783Z,59.80
2022-09-13T01:08:38.188Z,22.83
2022-09-13T01:11:07.376Z,36.67
2022-09-13T01:13:36.262Z,25.83
2022-09-13T01:16:03.791Z,22.87
2022-09-13T01:18:31.427Z,51.77
2022-09-13T01:21:16.911Z,51.87
2022-09-13T01:24:16.507Z,29.53
2022-09-13T01:26:55.518Z,34.97
2022-09-13T01:29:35.496Z,30.63
2022-09-13T01:32:09.385Z,29.27
2022-09-13T01:34:46.981Z,45.13
2022-09-13T01:37:34.566Z,46.73
2022-09-13T01:40:11.972Z,29.23
2022-09-13T01:42:51.708Z,35.63
2022-09-13T01:45:28.078Z,51.73
2022-09-13T01:47:59.584Z,51.23
2022-09-13T01:50:35.751Z,67.10
2022-09-13T01:53:07.268Z,66.73
2022-09-13T01:55:41.672Z,44.70
2022-09-13T01:58:16.781Z,71.10
2022-09-13T02:00:49.551Z,44.63
2022-09-13T02:03:20.343Z,39.20
2022-09-13T02:05:51.209Z,25.07
2022-09-13T02:08:22.966Z,65.13
2022-09-13T02:10:53.800Z,67.00
2022-09-13T02:13:23.795Z,67.40
2022-09-13T02:15:53.982Z,26.37
2022-09-13T02:18:25.611Z,27.20
2022-09-13T02:20:54.752Z,28.23
2022-09-13T02:23:25.132Z,26.40
2022-09-13T02:25:54.795Z,27.67
2022-09-13T02:28:24.644Z,45.73
2022-09-13T02:30:54.258Z,44.03
2022-09-13T02:33:27.476Z,32.97
2022-09-13T02:35:56.742Z,27.73
2022-09-13T02:38:28.570Z,23.13
2022-09-13T02:40:59.743Z,27.73
2022-09-13T02:43:31.466Z,26.73
2022-09-13T02:46:12.046Z,45.87
2022-09-13T02:48:51.099Z,57.80
2022-09-13T02:51:25.955Z,26.67
2022-09-13T02:54:00.484Z,24.30
2022-09-13T02:56:33.086Z,25.33
2022-09-13T02:59:05.401Z,47.43
2022-09-13T03:01:33.742Z,58.30
2022-09-13T03:04:03.274Z,24.07
2022-09-13T03:06:30.960Z,25.83
2022-09-13T03:09:00.515Z,26.03
2022-09-13T03:11:37.415Z,52.43
2022-09-13T03:14:17.714Z,23.23
2022-09-13T03:16:55.824Z,56.40
2022-09-13T03:19:32.226Z,26.50
2022-09-13T03:22:24.770Z,25.90
2022-09-13T03:24:57.292Z,32.30
2022-09-13T03:27:31.863Z,49.33
2022-09-13T03:30:05.051Z,61.90
2022-09-13T03:32:38.009Z,27.73
2022-09-13T03:35:14.007Z,25.30
2022-09-13T03:37:46.396Z,37.97
2022-09-13T03:40:16.111Z,24.70
2022-09-13T03:42:47.514Z,54.10
2022-09-13T03:45:16.115Z,31.57
2022-09-13T03:47:44.871Z,31.23
2022-09-13T03:50:18.443Z,45.57
2022-09-13T03:52:46.733Z,23.53
2022-09-13T03:55:14.380Z,44.03
2022-09-13T03:57:41.867Z,64.97
2022-09-13T04:00:11.299Z,53.47
2022-09-13T04:02:38.876Z,32.93
2022-09-13T04:05:07.101Z,44.20
2022-09-13T04:07:35.988Z,44.77
2022-09-13T04:10:03.558Z,43.43
2022-09-13T04:12:31.094Z,30.67
2022-09-13T04:14:58.976Z,45.63
2022-09-13T04:17:26.475Z,22.27
2022-09-13T04:19:53.996Z,40.47
2022-09-13T04:22:21.499Z,24.03
2022-09-13T04:24:51.659Z,46.87
2022-09-13T04:27:19.383Z,32.10
2022-09-13T04:29:46.875Z,29.03
2022-09-13T04:32:14.387Z,25.53
2022-09-13T04:34:41.898Z,35.07
2022-09-13T04:37:09.652Z,71.27
2022-09-13T04:39:37.156Z,73.80
2022-09-13T04:42:07.348Z,68.97
2022-09-13T04:44:34.869Z,63.80
2022-09-13T04:47:02.649Z,69.80
2022-09-13T04:49:30.150Z,67.40
2022-09-13T04:51:57.942Z,66.70
2022-09-13T04:54:25.440Z,56.77
2022-09-13T04:56:52.918Z,62.23
2022-09-13T04:59:21.920Z,56.07
2022-09-13T05:01:49.448Z,59.40
2022-09-13T05:04:17.087Z,62.30
2022-09-13T05:06:44.671Z,65.30
2022-09-13T05:09:14.627Z,57.67
2022-09-13T05:11:42.581Z,67.20
2022-09-13T05:14:11.566Z,59.33
2022-09-13T05:16:40.559Z,65.20
2022-09-13T05:19:08.187Z,60.67
2022-09-13T05:21:35.688Z,65.83
2022-09-13T05:24:03.411Z,64.87
2022-09-13T05:26:31.861Z,63.47
2022-09-13T05:28:59.840Z,61.80
2022-09-13T05:31:30.446Z,62.37
2022-09-13T05:34:01.175Z,74.93
2022-09-13T05:36:29.323Z,79.17
2022-09-13T05:39:18.741Z,75.33
2022-09-13T05:41:44.849Z,89.57
2022-09-13T05:44:13.792Z,81.17
2022-09-13T05:46:42.139Z,90.90
2022-09-13T05:49:13.419Z,66.73
2022-09-13T05:51:41.191Z,79.23
2022-09-13T05:54:09.225Z,76.70
2022-09-13T05:56:36.703Z,73.43
2022-09-13T05:59:04.238Z,91.70
2022-09-13T06:01:32.193Z,76.43
2022-09-13T06:04:00.545Z,72.20
2022-09-13T06:06:29.378Z,75.03
2022-09-13T06:08:57.754Z,71.97
2022-09-13T06:11:26.386Z,84.40
2022-09-13T06:13:54.171Z,75.20
2022-09-13T06:16:22.076Z,70.77
2022-09-13T06:18:50.314Z,74.57
2022-09-13T06:21:19.331Z,84.60
2022-09-13T06:23:49.528Z,79.10
2022-09-13T06:26:18.393Z,75.33
2022-09-13T06:28:48.924Z,76.10
2022-09-13T06:31:18.222Z,64.03
2022-09-13T06:33:46.367Z,78.93
2022-09-13T06:36:15.492Z,77.10
2022-09-13T06:38:43.491Z,73.97
2022-09-13T06:41:14.028Z,70.43
2022-09-13T06:43:42.180Z,75.00
2022-09-13T06:46:11.841Z,67.47
2022-09-13T06:48:40.782Z,82.77
2022-09-13T06:51:10.230Z,82.23
2022-09-13T06:53:38.494Z,82.60
2022-09-13T06:56:08.252Z,64.63
2022-09-13T06:58:38.219Z,72.73
2022-09-13T07:01:12.492Z,81.37
2022-09-13T07:03:41.199Z,71.83
2022-09-13T07:06:13.567Z,78.97
2022-09-13T07:08:41.712Z,73.10
2022-09-13T07:11:10.064Z,91.07
2022-09-13T07:13:39.110Z,78.97
2022-09-13T07:16:08.644Z,68.93
2022-09-13T07:18:36.255Z,78.17
2022-09-13T07:21:05.867Z,77.43
2022-09-13T07:23:34.076Z,88.23
2022-09-13T07:26:04.482Z,78.53
2022-09-13T07:28:35.303Z,77.40
2022-09-13T07:31:09.436Z,81.70
2022-09-13T07:33:37.248Z,71.93
2022-09-13T07:36:06.573Z,69.23
2022-09-13T07:38:35.637Z,73.87
2022-09-13T07:41:06.474Z,90.17
2022-09-13T07:43:34.926Z,74.30
2022-09-13T07:46:03.672Z,68.27
2022-09-13T07:48:34.292Z,72.37
2022-09-13T07:51:03.618Z,76.00
2022-09-13T07:53:32.270Z,76.90
2022-09-13T07:56:04.329Z,77.97
2022-09-13T07:58:32.423Z,76.63
2022-09-13T08:01:06.008Z,81.67
2022-09-13T08:03:36.015Z,84.23
2022-09-13T08:06:04.358Z,73.17
2022-09-13T08:08:32.843Z,80.60
2022-09-13T08:11:01.416Z,86.83
2022-09-13T08:13:29.715Z,75.30
2022-09-13T08:15:57.473Z,79.33
2022-09-13T08:18:25.037Z,71.47
2022-09-13T08:20:57.105Z,100.83
2022-09-13T08:23:24.754Z,76.77
2022-09-13T08:25:52.503Z,78.03
2022-09-13T08:28:27.348Z,76.23
2022-09-13T08:30:55.029Z,80.60
2022-09-13T08:33:22.687Z,73.33
2022-09-13T08:35:55.504Z,71.50
2022-09-13T08:38:23.041Z,80.47
2022-09-13T08:40:52.574Z,74.57
2022-09-13T08:43:26.064Z,79.63
2022-09-13T08:45:59.975Z,70.10
2022-09-13T08:48:33.694Z,66.90
2022-09-13T08:51:06.095Z,102.87
2022-09-13T08:53:39.149Z,79.53
2022-09-13T08:56:09.692Z,85.10
2022-09-13T08:58:57.696Z,67.07
2022-09-13T09:01:39.376Z,67.63
2022-09-13T09:04:12.745Z,63.63
2022-09-13T09:06:42.231Z,68.03
2022-09-13T09:09:14.656Z,68.70
2022-09-13T09:11:45.076Z,67.30
2022-09-13T09:14:16.570Z,64.60
2022-09-13T09:16:47.436Z,64.60
2022-09-13T09:19:20.117Z,60.47
2022-09-13T09:21:50.675Z,56.20
2022-09-13T09:24:21.078Z,59.23
2022-09-13T09:26:48.569Z,70.43
2022-09-13T09:29:24.716Z,63.07
2022-09-13T09:32:03.153Z,63.63
2022-09-13T09:34:42.648Z,51.67
2022-09-13T09:37:17.607Z,46.43
2022-09-13T09:39:45.259Z,54.57
2022-09-13T09:42:14.719Z,62.93
2022-09-13T09:44:44.805Z,52.67
2022-09-13T09:47:15.533Z,45.33
2022-09-13T09:50:03.963Z,61.90
2022-09-13T09:52:37.001Z,55.17
2022-09-13T09:55:15.357Z,50.60
2022-09-13T09:57:53.628Z,44.73
2022-09-13T10:00:23.179Z,59.23
2022-09-13T10:02:54.084Z,59.20
2022-09-13T10:05:22.906Z,38.53
2022-09-13T10:07:57.759Z,53.93
2022-09-13T10:10:28.093Z,61.27
2022-09-13T10:12:57.322Z,39.63
2022-09-13T10:15:27.286Z,53.20
2022-09-13T10:18:40.383Z,62.80
2022-09-13T10:21:06.656Z,51.97
2022-09-13T10:23:36.426Z,49.33
2022-09-13T10:26:07.531Z,45.40
2022-09-13T10:28:37.301Z,67.00
2022-09-13T10:31:07.458Z,46.07
2022-09-13T10:33:37.130Z,49.00
2022-09-13T10:36:07.762Z,40.93
2022-09-13T10:38:41.854Z,53.47
2022-09-13T10:41:22.952Z,61.33
2022-09-13T10:43:52.727Z,47.57
2022-09-13T10:46:23.560Z,43.90
2022-09-13T10:48:55.878Z,36.17
2022-09-13T10:51:34.260Z,27.80
2022-09-13T10:54:19.981Z,38.27
2022-09-13T10:56:47.992Z,48.43
2022-09-13T10:59:22.411Z,34.27
2022-09-13T11:02:03.420Z,29.70
2022-09-13T11:04:57.555Z,36.90
2022-09-13T11:07:34.504Z,29.83
2022-09-13T11:10:08.852Z,52.80
2022-09-13T11:12:41.395Z,36.77
2022-09-13T11:15:18.805Z,52.53
2022-09-13T11:18:01.102Z,54.50
2022-09-13T11:20:34.458Z,54.67
2022-09-13T11:23:12.259Z,37.30
2022-09-13T11:25:49.877Z,36.67
2022-09-13T11:28:23.660Z,64.60
2022-09-13T11:31:02.076Z,64.37
2022-09-13T11:33:39.223Z,54.53
2022-09-13T11:36:26.732Z,57.90
2022-09-13T11:39:03.800Z,64.90
2022-09-13T11:41:41.308Z,64.50
2022-09-13T11:44:33.515Z,32.60
2022-09-13T11:47:07.344Z,48.00
2022-09-13T11:49:43.262Z,25.50
2022-09-13T11:52:17.917Z,81.27
2022-09-13T11:54:55.152Z,22.73
2022-09-13T11:57:26.597Z,29.00
2022-09-13T11:59:55.739Z,22.80
2022-09-13T12:02:28.365Z,26.60
2022-09-13T12:05:21.156Z,31.20
2022-09-13T12:07:50.546Z,63.93
2022-09-13T12:10:25.115Z,58.47
2022-09-13T12:12:54.381Z,68.67
2022-09-13T12:15:27.321Z,23.77
2022-09-13T12:17:59.823Z,24.40
2022-09-13T12:20:32.467Z,61.33
2022-09-13T12:23:02.230Z,25.67
2022-09-13T12:25:40.652Z,22.40
2022-09-13T12:28:16.807Z,25.50
2022-09-13T12:30:51.790Z,21.37
2022-09-13T12:33:19.423Z,23.90
2022-09-13T12:35:55.074Z,22.57
2022-09-13T12:38:39.191Z,28.03
2022-09-13T12:41:18.303Z,37.77
2022-09-13T12:44:13.436Z,23.17
2022-09-13T12:46:56.628Z,26.63
2022-09-13T12:49:54.756Z,27.77
2022-09-13T12:52:31.710Z,29.10
2022-09-13T12:55:45.445Z,63.73
2022-09-13T12:58:31.154Z,47.40
2022-09-13T13:01:10.922Z,44.37
2022-09-13T13:03:46.916Z,61.73
2022-09-13T13:06:25.319Z,22.07
2022-09-13T13:08:55.169Z,24.10
2022-09-13T13:11:24.869Z,69.43
2022-09-13T13:13:57.897Z,59.53
2022-09-13T13:16:30.453Z,63.63
2022-09-13T13:18:59.151Z,26.27
2022-09-13T13:21:39.010Z,62.23
2022-09-13T13:24:40.284Z,73.60
2022-09-13T13:27:47.635Z,24.80
2022-09-13T13:30:35.838Z,25.63
2022-09-13T13:33:18.039Z,26.83
2022-09-13T13:35:45.956Z,32.87
2022-09-13T13:38:43.827Z,54.60
2022-09-13T13:41:39.456Z,46.57
2022-09-13T13:44:59.033Z,24.27
2022-09-13T13:48:03.055Z,64.63
2022-09-13T13:50:35.035Z,35.87
2022-09-13T13:53:24.402Z,64.17
2022-09-13T13:56:09.163Z,65.07
2022-09-13T13:58:47.515Z,28.60
2022-09-13T14:01:19.268Z,54.43
2022-09-13T14:04:23.689Z,26.87
2022-09-13T14:07:05.987Z,62.27
2022-09-13T14:09:40.681Z,26.23
2022-09-13T14:12:21.386Z,29.23
2022-09-13T14:15:01.305Z,25.83
2022-09-13T14:17:54.314Z,25.33
2022-09-13T14:20:24.089Z,21.83
2022-09-13T14:22:53.599Z,31.20
2022-09-13T14:25:25.584Z,79.27
2022-09-13T14:27:57.249Z,27.47
2022-09-13T14:30:28.124Z,62.17
2022-09-13T14:32:57.707Z,56.40
2022-09-13T14:35:28.818Z,20.97
2022-09-13T14:38:11.256Z,27.37
2022-09-13T14:40:39.547Z,53.87
2022-09-13T14:43:16.537Z,27.47
2022-09-13T14:45:45.761Z,27.17
2022-09-13T14:48:17.797Z,24.47
2022-09-13T14:50:50.337Z,24.17
2022-09-13T14:53:22.779Z,48.53
2022-09-13T14:55:53.469Z,34.03
2022-09-13T14:58:24.429Z,47.60
2022-09-13T15:00:54.027Z,28.50
2022-09-13T15:03:22.407Z,30.57
2022-09-13T15:05:54.797Z,39.60
2022-09-13T15:08:47.918Z,65.20
2022-09-13T15:11:18.545Z,50.03
2022-09-13T15:13:46.370Z,48.83
2022-09-13T15:16:26.522Z,55.37
2022-09-13T15:19:18.980Z,60.53
2022-09-13T15:21:47.341Z,71.10
2022-09-13T15:24:22.852Z,92.80
2022-09-13T15:26:51.097Z,62.77
2022-09-13T15:29:19.909Z,37.10
2022-09-13T15:31:47.879Z,79.50
2022-09-13T15:34:23.553Z,75.17
2022-09-13T15:37:03.732Z,26.57
2022-09-13T15:39:44.044Z,69.17
2022-09-13T15:42:11.647Z,31.43
2022-09-13T15:44:42.498Z,65.87
2022-09-13T15:47:12.155Z,58.90
2022-09-13T15:49:41.106Z,30.70
2022-09-13T15:52:09.583Z,27.27
2022-09-13T15:54:40.902Z,39.03
2022-09-13T15:57:10.300Z,60.77
2022-09-13T15:59:37.811Z,73.73
2022-09-13T16:02:18.444Z,23.00
2022-09-13T16:04:46.013Z,25.57
2022-09-13T16:07:13.576Z,27.70
2022-09-13T16:09:42.573Z,55.33
2022-09-13T16:12:10.344Z,29.03
2022-09-13T16:14:37.922Z,55.33
2022-09-13T16:17:07.881Z,28.47
2022-09-13T16:19:35.894Z,41.80
2022-09-13T16:22:03.995Z,29.87
2022-09-13T16:24:31.521Z,27.87
2022-09-13T16:27:02.346Z,29.87
2022-09-13T16:29:29.875Z,26.93
2022-09-13T16:31:59.829Z,48.80
2022-09-13T16:34:27.485Z,49.13
2022-09-13T16:36:54.999Z,62.20
2022-09-13T16:39:22.609Z,58.77
2022-09-13T16:41:50.107Z,59.20
2022-09-13T16:44:18.988Z,52.43
2022-09-13T16:46:46.795Z,57.10
2022-09-13T16:49:14.407Z,24.67
2022-09-13T16:51:41.892Z,46.43
2022-09-13T16:54:09.482Z,62.67
2022-09-13T16:56:37.000Z,38.07
2022-09-13T16:59:04.632Z,63.27
2022-09-13T17:01:33.573Z,52.60
2022-09-13T17:04:01.790Z,50.57
2022-09-13T17:06:29.361Z,55.97
2022-09-13T17:09:00.580Z,41.83
2022-09-13T17:11:29.860Z,42.17
2022-09-13T17:13:57.362Z,56.80
2022-09-13T17:16:27.928Z,48.93
2022-09-13T17:18:58.110Z,30.53
2022-09-13T17:21:26.425Z,42.67
2022-09-13T17:23:53.968Z,48.93
2022-09-13T17:26:21.832Z,33.60
2022-09-13T17:28:49.471Z,36.00
2022-09-13T17:31:17.193Z,39.17
2022-09-13T17:33:44.766Z,48.33
2022-09-13T17:36:15.394Z,27.50
2022-09-13T17:38:43.459Z,44.40
2022-09-13T17:41:12.703Z,64.10
2022-09-13T17:43:41.577Z,35.53
2022-09-13T17:46:11.928Z,52.30
2022-09-13T17:48:39.794Z,32.83
2022-09-13T17:51:09.039Z,53.47
2022-09-13T17:53:40.395Z,34.07
2022-09-13T17:56:08.495Z,52.83
2022-09-13T17:58:36.728Z,49.63
2022-09-13T18:01:04.746Z,52.93
2022-09-13T18:03:32.519Z,32.17
2022-09-13T18:06:01.226Z,45.13
2022-09-13T18:08:31.026Z,36.57
2022-09-13T18:11:13.180Z,34.40
2022-09-13T18:13:42.193Z,43.47
2022-09-13T18:16:11.105Z,28.43
2022-09-13T18:18:43.669Z,38.47
2022-09-13T18:21:11.618Z,45.20
2022-09-13T18:23:39.176Z,37.27
2022-09-13T18:26:10.967Z,37.10
2022-09-13T18:28:39.011Z,38.07
2022-09-13T18:31:09.120Z,39.23
2022-09-13T18:33:37.036Z,44.03
2022-09-13T18:36:06.610Z,51.17
2022-09-13T18:38:36.087Z,38.17
2022-09-13T18:41:05.181Z,60.20
2022-09-13T18:43:35.703Z,31.13
2022-09-13T18:46:05.118Z,31.03
2022-09-13T18:48:34.285Z,34.93
2022-09-13T18:51:02.328Z,34.83
2022-09-13T18:53:34.754Z,39.67
2022-09-13T18:56:03.327Z,39.37
2022-09-13T18:58:31.141Z,30.17
2022-09-13T19:01:04.240Z,49.17
2022-09-13T19:03:32.758Z,53.07
2022-09-13T19:06:14.096Z,45.77
2022-09-13T19:08:42.010Z,44.33
2022-09-13T19:11:23.816Z,50.83
2022-09-13T19:13:56.938Z,48.30
2022-09-13T19:16:26.413Z,33.13
2022-09-13T19:18:54.320Z,35.43
2022-09-13T19:21:23.488Z,53.30
2022-09-13T19:24:00.000Z,35.73
2022-09-13T19:26:29.431Z,35.13
2022-09-13T19:28:59.491Z,37.47
2022-09-13T19:31:29.114Z,54.97
2022-09-13T19:33:58.039Z,53.87
2022-09-13T19:36:30.786Z,58.03
2022-09-13T19:39:01.190Z,75.80
2022-09-13T19:41:30.307Z,61.93
2022-09-13T19:44:00.056Z,60.93
2022-09-13T19:46:31.644Z,59.47
2022-09-13T19:49:01.984Z,62.77
2022-09-13T19:51:32.946Z,68.20
2022-09-13T19:54:01.655Z,64.13
2022-09-13T19:56:30.707Z,61.37
2022-09-13T19:58:58.963Z,66.50
2022-09-13T20:01:29.311Z,60.60
2022-09-13T20:03:59.353Z,59.97
2022-09-13T20:06:28.161Z,62.87
2022-09-13T20:08:59.551Z,65.77
2022-09-13T20:11:28.460Z,66.73
2022-09-13T20:13:58.992Z,58.70
2022-09-13T20:16:29.783Z,55.53
2022-09-13T20:18:58.064Z,57.10
2022-09-13T20:21:26.275Z,60.33
2022-09-13T20:23:55.100Z,68.20
2022-09-13T20:26:24.583Z,65.63
2022-09-13T20:28:55.555Z,68.43
2022-09-13T20:31:23.406Z,63.73
2022-09-13T20:33:56.634Z,67.57
2022-09-13T20:36:25.122Z,66.70
2022-09-13T20:38:55.204Z,70.93
2022-09-13T20:41:25.061Z,72.30
2022-09-13T20:43:53.153Z,65.87
2022-09-13T20:46:22.479Z,67.43
2022-09-13T20:48:50.313Z,70.23
2022-09-13T20:51:21.672Z,64.93
2022-09-13T20:53:54.194Z,73.30
2022-09-13T20:56:21.751Z,74.13
2022-09-13T20:58:57.054Z,78.30
2022-09-13T21:01:25.727Z,68.67
2022-09-13T21:03:55.159Z,71.13
2022-09-13T21:06:25.463Z,66.90
2022-09-13T21:08:52.502Z,66.97
2022-09-13T21:11:22.424Z,67.00
2022-09-13T21:13:51.883Z,71.23
2022-09-13T21:16:22.362Z,68.27
2022-09-13T21:18:50.066Z,70.07
2022-09-13T21:21:20.076Z,67.70
2022-09-13T21:23:49.362Z,74.77
2022-09-13T21:26:18.420Z,64.97
2022-09-13T21:28:45.946Z,81.90
2022-09-13T21:31:18.316Z,65.13
2022-09-13T21:33:48.414Z,65.63
2022-09-13T21:36:15.988Z,66.27
2022-09-13T21:38:43.520Z,64.87
2022-09-13T21:41:14.301Z,66.13
2022-09-13T21:43:42.332Z,64.00
2022-09-13T21:46:16.574Z,62.17
2022-09-13T21:48:45.320Z,70.33
2022-09-13T21:51:16.749Z,70.27
2022-09-13T21:53:45.033Z,68.20
2022-09-13T21:56:16.328Z,68.87
2022-09-13T21:58:49.039Z,73.17
2022-09-13T22:01:18.163Z,64.33
2022-09-13T22:03:47.623Z,65.57
2022-09-13T22:06:15.959Z,72.17
2022-09-13T22:08:46.616Z,71.37
2022-09-13T22:11:17.889Z,69.27
2022-09-13T22:13:47.083Z,69.33
2022-09-13T22:16:17.996Z,68.50
2022-09-13T22:18:45.917Z,70.77
2022-09-13T22:21:14.607Z,69.50
2022-09-13T22:23:42.251Z,76.40
2022-09-13T22:26:12.747Z,75.17
2022-09-13T22:28:41.759Z,74.30
2022-09-13T22:31:11.260Z,70.77
2022-09-13T22:33:39.330Z,74.57
2022-09-13T22:36:09.910Z,69.33
2022-09-13T22:38:38.363Z,70.97
2022-09-13T22:41:07.433Z,69.57
2022-09-13T22:43:35.351Z,73.40
2022-09-13T22:46:05.708Z,71.37
2022-09-13T22:48:35.244Z,73.00
2022-09-13T22:51:03.769Z,89.50
2022-09-13T22:53:33.130Z,73.13
2022-09-13T22:56:03.903Z,66.47
2022-09-13T22:58:31.947Z,71.83
2022-09-13T23:01:05.775Z,78.90
2022-09-13T23:03:33.663Z,72.50
2022-09-13T23:06:01.185Z,68.17
2022-09-13T23:08:29.305Z,69.80
2022-09-13T23:10:56.962Z,76.00
2022-09-13T23:13:24.542Z,69.80
2022-09-13T23:15:52.019Z,65.47
2022-09-13T23:18:21.016Z,69.10
2022-09-13T23:20:56.739Z,68.30
2022-09-13T23:23:24.305Z,68.17
2022-09-13T23:25:51.932Z,71.13
2022-09-13T23:28:19.812Z,65.40
2022-09-13T23:30:47.306Z,67.73
2022-09-13T23:33:14.821Z,64.90
2022-09-13T23:35:45.698Z,72.33
2022-09-13T23:38:13.200Z,71.90
2022-09-13T23:40:40.691Z,71.53
2022-09-13T23:43:08.207Z,70.57
2022-09-13T23:45:35.777Z,68.37
2022-09-13T23:48:03.428Z,68.63
2022-09-13T23:50:30.931Z,68.37
2022-09-13T23:53:00.414Z,65.93
2022-09-13T23:55:28.324Z,62.20
2022-09-13T23:57:55.827Z,67.30
